10:53
Airports
Links
Donate
Help keep this website running!
PayPal
Bitcoin
METAR
KSEA 221023Z 02011KT 10SM BKN010 OVC050 M01/M02 A3018 RMK AO2 CIG 007V012 T10111022
Current Weather Conditions at KSEA
MVFR 10:23:00 22-02-18
Automated station
Altimeter:30.18 hg
Temp:-1.1°c 30°f
Dew point:-2.2°c 28°f
Wind:11 knots, 12.7 mph, 6 m/s, from 20°
Visibility:10.0 statute miles
5000(OVC) Overcast
1000(BKN) Broken
Past METAR reports
VFR 09:53:00 22-02-18
Automated station
Altimeter:30.17 hg
Temp:-1.1°c 30°f
Dew point:-2.2°c 28°f
Wind:6 knots, 6.9 mph, 3 m/s, from 20°
Visibility:10.0 statute miles
5000(OVC) Overcast
KSEA 220953Z 02006KT 10SM OVC050 M01/M02 A3017 RMK AO2 SLP228 T10111022
VFR 08:53:00 22-02-18
Automated station
Altimeter:30.17 hg
Temp:-1.1°c 30°f
Dew point:-2.2°c 28°f
Wind:5 knots, 5.8 mph, 3 m/s, from 40°
Visibility:10.0 statute miles
4500(BKN) Broken
2300(FEW) A few
KSEA 220853Z 04005KT 10SM FEW023 BKN045 M01/M02 A3017 RMK AO2 SNE27 SLP227 P0000 60000 T10111022 53002
VFR 08:40:00 22-02-18
Automated station
Altimeter:30.17 hg
Temp:-1.1°c 30°f
Dew point:-2.8°c 28°f
Wind:5 knots, 5.8 mph, 3 m/s, from 40°
Visibility:10.0 statute miles
4500(BKN) Broken
2300(SCT) Scattered
KSEA 220840Z 04005KT 10SM SCT023 BKN045 M01/M03 A3017 RMK AO2 SNE27 P0000 T10111028
MVFR 08:26:00 22-02-18
Automated station
Altimeter:30.17 hg
Temp:-1.1°c 30°f
Dew point:-2.2°c 28°f
Wind:0 knots, 0 mph, 0 m/s,
Variable direction
Visibility:5.0 statute miles
4500(BKN) Broken
2500(BKN) Broken
KSEA 220826Z 00000KT 5SM -SN BR BKN025 BKN045 M01/M02 A3017 RMK AO2 P0000 T10111022
MVFR 08:07:00 22-02-18
Automated station
Altimeter:30.16 hg
Temp:-0.6°c 32°f
Dew point:-2.2°c 28°f
Wind:3 knots, 3.5 mph, 2 m/s,
Variable direction
Visibility:3.0 statute miles
3800(OVC) Overcast
2300(SCT) Scattered
300(FEW) A few
KSEA 220807Z VRB03KT 3SM -SN BR FEW003 SCT023 OVC038 M01/M02 A3016 RMK AO2 P0000 T10061022
IFR 07:53:00 22-02-18
Automated station
Altimeter:30.17 hg
Temp:-0.6°c 32°f
Dew point:-2.2°c 28°f
Wind:4 knots, 4.6 mph, 2 m/s,
Variable direction
Visibility:3.0 statute miles
3800(OVC) Overcast
800(BKN) Broken
300(SCT) Scattered
KSEA 220753Z VRB04KT 3SM -SN BR SCT003 BKN008 OVC038 M01/M02 A3017 RMK AO2 SLP225 P0000 T10061022 400111033
TAF
KSEA 220902Z 2209/2312 04005KT P6SM SCT022 BKN040 BKN080 FM221100 02008KT P6SM SCT060 BKN120 BKN200 FM222000 36008KT P6SM SCT120 BKN250 FM230200 VRB04KT P6SM SCT120
Forecast at KSEA
09:00 22-02-18 to 11:00 22-02-18
Wind:5 Knots from 40°
Visibility:6.21 statute miles
2200SCT Scattered
4000BKN Broken
8000BKN Broken
FM 11:00 22-02-18 to 20:00 22-02-18
Wind:8 Knots from 20°
Visibility:6.21 statute miles
6000SCT Scattered
12000BKN Broken
20000BKN Broken
FM 20:00 22-02-18 to 02:00 23-02-18
Wind:8 Knots from 360°
Visibility:6.21 statute miles
12000SCT Scattered
25000BKN Broken
FM 02:00 23-02-18 to 12:00 23-02-18
Wind:4 Knots from 360°
Visibility:6.21 statute miles
12000SCT Scattered